Main page
METAR-TAF:

METAR-TAF

Airports :

Karlovy Vary, Czech Republic

Karlovy Vary Airport

latitude: 50-12N, longitude: 012-55E, elevation: 603 m

Current weather observation

The report was made 18 minutes ago, at 14:00 UTC
Wind 5 kt from the South
Temperature 25°C
Humidity 30%
Pressure 1021 hPa
Visibility 10 km or more
no clouds below 1500 m and no cumulonimbus

METAR: LKKV 281400Z 17005KT CAVOK 25/06 Q1021

Time: 16:18 (14:18 UTC)

Forecast

The report was made 3 hours and 18 minutes ago, at 11:00 UTC
Forecast valid from 28 at 12 UTC to 29 at 18 UTC
Wind 5 kt from the South/Southeast
Visibility 10 km or more
no clouds below 1500 m and no cumulonimbus
Probability 30% :
Temporary
from 29 at 10 UTC to 29 at 18 UTC
Visibility: 8000 m
Scattered clouds at a height of 3000 ft, Cumulonimbus.
thunderstorm, rain

TAF: LKKV 281100Z 2812/2918 16005KT CAVOK PROB30 TEMPO 2910/2918 8000 TSRA SCT030CB

Weather observations and forecasts of more than 4000 airports (METAR and TAF reports).

The available stations are represented by yellow and red dots on the map.

Hover mouse over dot to see the name of the station.

Then click to see weather observations and forecasts.

To change the map : click on the green buttons with a black cross to zoom in, on the green button with a dash to zoom out, or on the green arrows for adjacent maps.


METAR-TAF: